Terminal Aerodrome Forecast
Issued by NWS

Home | Current Version | Previous Version | Text Only | Print | Product List | Glossary On
Versions: 1 2 3 4 5 6 7 8 9 10 11 12 13 14 15 16 17
000
FTUS43 KPAH 311100
TAFCGI
TAF
KCGI 311120Z 3112/0112 20005KT P6SM BKN015
     FM311500 22007KT P6SM SCT015 BKN025
     FM312200 19006KT P6SM SCT040
     FM010100 19006KT P6SM SCT250
     FM010600 19003KT 3SM BR SCT250
      TEMPO 0108/0112 1SM BR SCT006=

USA.gov is the U.S. government's official web portal to all federal, state and local government web resources and services.